Time;durP1;ratioP1;P1;durP2;ratioP2;P2;SDS_P1;SDS_P2;PMS_P1;PMS_P2;Temp;Humidity;BMP_temperature;BMP_pressure;BME280_temperature;BME280_humidity;BME280_pressure;Samples;Min_cycle;Max_cycle;Signal;HPM_P1;HPM_P2
2022/03/19 00:00:19;;;;;;;;;3.25;1.75;;;;;9.45;46.92;103344.50;5049295;28;45402;-71
2022/03/19 00:02:46;;;;;;;;;7.75;3.50;;;;;9.42;46.59;103333.97;5050144;28;46195;-71
2022/03/19 00:05:11;;;;;;;;;6.00;4.00;;;;;9.40;46.87;103338.34;5049316;28;45878;-72
2022/03/19 00:07:38;;;;;;;;;6.50;4.00;;;;;9.35;46.68;103340.09;5049398;28;45831;-73
2022/03/19 00:10:06;;;;;;;;;6.00;5.50;;;;;9.35;46.90;103340.09;5047442;28;45387;-71
2022/03/19 00:12:32;;;;;;;;;4.00;4.00;;;;;9.34;46.69;103343.56;5051095;28;46687;-71
2022/03/19 00:14:57;;;;;;;;;4.00;4.00;;;;;9.32;46.91;103332.19;5051068;28;45840;-71
2022/03/19 00:17:22;;;;;;;;;6.50;3.50;;;;;9.30;47.14;103336.56;5051470;28;45544;-71
2022/03/19 00:19:48;;;;;;;;;5.33;5.33;;;;;9.29;46.88;103329.53;5050684;28;52184;-71
2022/03/19 00:22:14;;;;;;;;;6.25;3.50;;;;;9.27;46.96;103341.78;5051207;28;48099;-72
2022/03/19 00:24:39;;;;;;;;;4.50;4.00;;;;;9.25;46.97;103336.53;5050971;28;45505;-71
2022/03/19 00:27:05;;;;;;;;;8.50;3.00;;;;;9.22;47.03;103338.28;5051257;28;45631;-71
2022/03/19 00:29:30;;;;;;;;;3.00;3.00;;;;;9.21;46.90;103332.16;5050772;28;45353;-71
2022/03/19 00:31:55;;;;;;;;;4.25;4.25;;;;;9.18;46.74;103331.25;5052730;28;46281;-71
2022/03/19 00:34:21;;;;;;;;;3.50;3.50;;;;;9.17;46.98;103335.63;5053896;27;45851;-71
2022/03/19 00:36:47;;;;;;;;;7.00;4.00;;;;;9.17;47.25;103340.00;5051022;28;45491;-71
2022/03/19 00:39:12;;;;;;;;;3.00;3.00;;;;;9.12;46.92;103326.84;5048403;28;45675;-71
2022/03/19 00:41:37;;;;;;;;;8.00;6.00;;;;;9.12;47.07;103332.09;5049122;28;46209;-72
2022/03/19 00:44:03;;;;;;;;;6.25;5.00;;;;;9.08;46.90;103331.22;5049483;28;45360;-71
2022/03/19 00:46:28;;;;;;;;;2.75;2.75;;;;;9.09;46.92;103332.97;5050778;28;45421;-71
2022/03/19 00:48:53;;;;;;;;;2.00;2.00;;;;;9.06;47.08;103325.09;5046235;28;45386;-71
2022/03/19 00:51:19;;;;;;;;;4.00;4.00;;;;;9.01;46.58;103323.31;5050376;28;48501;-71
2022/03/19 00:53:44;;;;;;;;;6.00;6.00;;;;;9.02;46.90;103325.06;5050521;28;45373;-71
2022/03/19 00:56:10;;;;;;;;;4.50;2.75;;;;;8.99;46.83;103319.81;5051936;28;45444;-71
2022/03/19 00:58:35;;;;;;;;;3.75;3.75;;;;;8.99;47.16;103332.94;5050475;28;45485;-71
2022/03/19 01:01:00;;;;;;;;;3.00;3.00;;;;;8.98;47.10;103324.19;5050550;28;45865;-71
2022/03/19 01:03:26;;;;;;;;;3.00;3.00;;;;;8.96;47.06;103322.41;5049768;28;45825;-71
2022/03/19 01:05:51;;;;;;;;;3.00;3.00;;;;;8.94;47.14;103317.16;5050079;28;45530;-71
2022/03/19 01:08:16;;;;;;;;;3.00;2.25;;;;;8.89;46.96;103311.88;5048080;28;45561;-72
2022/03/19 01:10:42;;;;;;;;;3.00;2.00;;;;;8.91;47.15;103321.50;5053771;28;46181;-72
2022/03/19 01:13:08;;;;;;;;;8.00;4.00;;;;;8.88;46.87;103319.75;5053105;28;45517;-71
2022/03/19 01:15:34;;;;;;;;;3.75;3.00;;;;;8.87;46.96;103317.97;5052759;28;45684;-72
2022/03/19 01:18:00;;;;;;;;;4.25;4.25;;;;;8.82;47.33;103306.59;5052336;28;45555;-71
2022/03/19 01:20:26;;;;;;;;;4.25;2.00;;;;;8.81;46.98;103315.31;5050584;28;46201;-71
2022/03/19 01:22:52;;;;;;;;;2.00;2.00;;;;;8.80;47.18;103306.59;5057098;28;45310;-71
2022/03/19 01:25:18;;;;;;;;;5.25;3.25;;;;;8.79;46.78;103314.47;5060199;27;45787;-71
2022/03/19 01:27:46;;;;;;;;;6.75;3.00;;;;;8.75;47.01;103308.31;5056602;28;45364;-71
2022/03/19 01:30:13;;;;;;;;;4.25;4.25;;;;;8.74;46.97;103309.19;5056681;28;46167;-71
2022/03/19 01:32:39;;;;;;;;;2.00;1.75;;;;;8.73;46.96;103306.56;5056130;28;45451;-71
2022/03/19 01:35:05;;;;;;;;;4.25;2.50;;;;;8.70;47.30;103307.41;5057521;28;45519;-71
2022/03/19 01:37:30;;;;;;;;;2.75;2.75;;;;;8.68;46.81;103301.28;5056144;28;45439;-71
2022/03/19 01:39:56;;;;;;;;;1.00;1.00;;;;;8.67;46.92;103302.16;5056355;28;48650;-71
2022/03/19 01:42:26;;;;;;;;;4.75;2.25;;;;;8.65;46.78;103300.38;5056422;28;45329;-71
2022/03/19 01:44:53;;;;;;;;;2.50;2.00;;;;;8.63;46.74;103284.66;5040555;28;45368;-71
2022/03/19 01:47:19;;;;;;;;;3.50;3.00;;;;;8.58;46.97;103289.88;5057213;28;45395;-71
2022/03/19 01:49:44;;;;;;;;;2.75;2.00;;;;;8.58;47.01;103297.72;5056292;28;46061;-71
2022/03/19 01:52:09;;;;;;;;;2.75;2.00;;;;;8.56;46.84;103290.69;5056494;28;45393;-71
2022/03/19 01:54:37;;;;;;;;;3.00;3.00;;;;;8.53;47.06;103282.84;5056637;28;45763;-71
2022/03/19 01:57:03;;;;;;;;;3.00;3.00;;;;;8.50;46.96;103294.16;5056436;28;45338;-71
2022/03/19 01:59:34;;;;;;;;;5.75;3.00;;;;;8.48;46.79;103285.44;5056551;28;46060;-71
2022/03/19 02:02:08;;;;;;;;;5.50;3.00;;;;;8.47;47.48;103282.81;5055203;28;45510;-71
2022/03/19 02:04:35;;;;;;;;;3.00;2.00;;;;;8.44;46.89;103281.03;5046893;28;45502;-71
2022/03/19 02:07:01;;;;;;;;;3.50;2.00;;;;;8.43;47.59;103291.50;5044976;28;45289;-71
2022/03/19 02:09:26;;;;;;;;;4.75;3.50;;;;;8.40;47.11;103283.63;5044603;28;46051;-71
2022/03/19 02:11:51;;;;;;;;;3.00;3.00;;;;;8.40;47.09;103287.09;5040222;28;45370;-71
2022/03/19 02:14:18;;;;;;;;;4.00;2.00;;;;;8.36;47.35;103285.34;5040999;28;45306;-71
2022/03/19 02:16:44;;;;;;;;;6.00;1.75;;;;;8.34;47.55;103281.78;5044671;28;45323;-71
2022/03/19 02:19:10;;;;;;;;;5.75;4.25;;;;;8.29;47.56;103270.41;5044469;28;46132;-71
2022/03/19 02:21:43;;;;;;;;;4.00;2.75;;;;;8.27;47.62;103278.25;5038481;28;45441;-71
2022/03/19 02:26:54;;;;;;;;;5.75;4.00;;;;;8.23;47.53;103273.84;5040534;28;45372;-71
2022/03/19 02:29:20;;;;;;;;;7.00;5.00;;;;;8.21;47.96;103269.50;5051172;28;47040;-71
2022/03/19 02:31:47;;;;;;;;;5.75;5.00;;;;;8.19;47.59;103265.97;5050940;28;45357;-71
2022/03/19 02:34:12;;;;;;;;;4.75;4.75;;;;;8.17;47.99;103265.97;5052547;28;45478;-71
2022/03/19 02:36:41;;;;;;;;;5.00;2.75;;;;;8.14;47.74;103262.44;5044352;28;45684;-71
2022/03/19 02:39:18;;;;;;;;;4.50;3.00;;;;;8.11;48.10;103261.56;5041539;28;46130;-71
2022/03/19 02:41:50;;;;;;;;;6.00;4.00;;;;;8.09;48.25;103257.16;5039537;28;45988;-71
2022/03/19 02:44:17;;;;;;;;;6.00;2.50;;;;;8.07;48.41;103258.91;5040788;28;45318;-71
2022/03/19 02:46:48;;;;;;;;;5.75;4.75;;;;;8.03;48.14;103249.25;5044238;28;45512;-71
2022/03/19 02:49:14;;;;;;;;;6.50;6.00;;;;;8.04;47.99;103253.66;5044353;28;45481;-71
2022/03/19 02:51:42;;;;;;;;;5.50;2.75;;;;;8.02;48.16;103244.88;5044319;28;45444;-71
2022/03/19 02:54:12;;;;;;;;;3.50;3.00;;;;;7.98;48.20;103251.84;5041443;28;45446;-71
2022/03/19 02:56:39;;;;;;;;;3.75;3.50;;;;;7.96;48.74;103248.34;5055459;28;45412;-71
2022/03/19 02:59:20;;;;;;;;;6.00;4.50;;;;;7.94;49.13;103250.06;5039984;28;45365;-71
2022/03/19 03:01:47;;;;;;;;;7.00;5.00;;;;;7.91;48.85;103244.81;5043936;28;45870;-71
2022/03/19 03:04:12;;;;;;;;;6.50;5.00;;;;;7.88;48.74;103239.53;5043945;28;45457;-71
2022/03/19 03:06:40;;;;;;;;;4.50;4.00;;;;;7.88;48.65;103242.16;5043739;28;45356;-71
2022/03/19 03:09:07;;;;;;;;;3.00;3.00;;;;;7.87;48.77;103237.78;5041369;28;47210;-71
2022/03/19 03:11:33;;;;;;;;;7.25;4.50;;;;;7.84;49.00;103241.25;5040854;28;45349;-71
2022/03/19 03:13:59;;;;;;;;;7.75;3.00;;;;;7.83;49.08;103228.19;5049199;28;45361;-71
2022/03/19 03:16:28;;;;;;;;;4.75;4.75;;;;;7.80;48.98;103226.38;5047019;28;45365;-71
2022/03/19 03:19:00;;;;;;;;;6.25;5.00;;;;;7.79;49.24;103224.66;5048730;28;45429;-71
2022/03/19 03:21:27;;;;;;;;;10.75;6.00;;;;;7.75;49.58;103214.13;5054636;28;45955;-71
2022/03/19 03:23:53;;;;;;;;;8.75;6.00;;;;;7.72;49.59;103209.72;5038918;28;45380;-71
2022/03/19 03:26:19;;;;;;;;;5.75;5.00;;;;;7.71;49.38;103215.84;5056066;28;45389;-71
2022/03/19 03:28:44;;;;;;;;;10.00;8.00;;;;;7.71;49.72;103230.66;5053949;28;46026;-71
2022/03/19 03:31:09;;;;;;;;;7.75;7.00;;;;;7.69;49.62;103221.94;5054371;28;45407;-71
2022/03/19 03:33:35;;;;;;;;;5.50;5.50;;;;;7.69;49.22;103219.31;5054775;28;45325;-71
2022/03/19 03:36:01;;;;;;;;;8.00;7.25;;;;;7.65;49.72;103217.53;5054837;28;45454;-71
2022/03/19 03:38:27;;;;;;;;;12.75;6.00;;;;;7.63;49.79;103209.69;5054923;28;46068;-71
2022/03/19 03:40:52;;;;;;;;;8.00;6.00;;;;;7.62;50.10;103207.91;5043214;28;45319;-71
2022/03/19 03:43:18;;;;;;;;;8.75;5.00;;;;;7.62;50.17;103207.03;5042954;28;45745;-71
2022/03/19 03:45:43;;;;;;;;;9.00;6.00;;;;;7.61;50.35;103215.75;5043717;28;49338;-71
2022/03/19 03:48:09;;;;;;;;;10.75;6.00;;;;;7.58;50.47;103216.59;5040796;28;45332;-71
2022/03/19 03:50:35;;;;;;;;;8.25;6.25;;;;;7.55;50.16;103209.59;5038678;28;45298;-71
2022/03/19 03:53:03;;;;;;;;;6.50;5.25;;;;;7.53;50.81;103206.09;5042043;28;45395;-71
2022/03/19 03:55:28;;;;;;;;;5.50;3.00;;;;;7.51;50.65;103218.25;5043339;28;45459;-71
2022/03/19 03:57:53;;;;;;;;;11.25;6.00;;;;;7.50;50.27;103220.88;5042697;28;46033;-71
2022/03/19 04:00:19;;;;;;;;;6.75;6.50;;;;;7.48;50.83;103213.03;5042259;28;45462;-71
2022/03/19 04:02:44;;;;;;;;;6.75;6.50;;;;;7.46;50.35;103219.97;5038542;28;45390;-71
2022/03/19 04:05:10;;;;;;;;;7.25;7.25;;;;;7.43;50.59;103214.72;5042032;28;45431;-71
2022/03/19 04:07:36;;;;;;;;;8.50;6.00;;;;;7.40;50.95;103209.44;5047521;28;45553;-71
2022/03/19 04:10:01;;;;;;;;;10.25;10.25;;;;;7.40;50.33;103213.78;5053903;28;45411;-71
2022/03/19 04:12:26;;;;;;;;;14.00;10.00;;;;;7.37;50.68;103214.66;5050683;28;45447;-71
2022/03/19 04:14:52;;;;;;;;;13.33;9.00;;;;;7.34;50.75;103214.63;5038274;28;50867;-71
2022/03/19 04:17:18;;;;;;;;;10.50;6.75;;;;;7.32;50.90;103211.13;5039540;28;46090;-71
2022/03/19 04:19:45;;;;;;;;;10.25;8.25;;;;;7.29;51.01;103205.84;5042934;28;45334;-71
2022/03/19 04:22:11;;;;;;;;;8.25;6.75;;;;;7.28;50.72;103206.72;5042939;28;45424;-71
2022/03/19 04:24:36;;;;;;;;;14.00;11.00;;;;;7.25;51.74;103209.28;5042793;28;45445;-71
2022/03/19 04:27:02;;;;;;;;;12.25;9.00;;;;;7.23;51.71;103214.50;5039460;28;46087;-71
2022/03/19 04:29:28;;;;;;;;;11.25;6.50;;;;;7.22;51.65;103217.13;5038244;28;45384;-71
2022/03/19 04:31:53;;;;;;;;;10.75;6.75;;;;;7.21;51.89;103223.22;5042473;28;45496;-71
2022/03/19 04:34:19;;;;;;;;;13.25;10.75;;;;;7.19;51.46;103219.69;5042565;28;45487;-71
2022/03/19 04:36:44;;;;;;;;;5.75;1.00;;;;;7.17;51.33;103216.19;5047258;28;45917;-71
2022/03/19 04:39:10;;;;;;;;;11.50;10.00;;;;;7.14;51.89;103217.00;5040887;28;45518;-71
2022/03/19 04:41:37;;;;;;;;;11.00;7.75;;;;;7.12;51.69;103208.28;5037641;28;45380;-71
2022/03/19 04:44:03;;;;;;;;;14.25;11.50;;;;;7.09;52.03;103210.84;5043176;28;45523;-71
2022/03/19 04:46:29;;;;;;;;;15.00;13.00;;;;;7.07;52.36;103204.75;5045805;28;46126;-71
2022/03/19 04:48:54;;;;;;;;;13.25;9.00;;;;;7.06;52.54;103213.47;5045921;28;45822;-71
2022/03/19 04:51:21;;;;;;;;;13.25;12.50;;;;;7.03;53.33;103214.28;5045234;28;45417;-71
2022/03/19 04:53:49;;;;;;;;;14.25;11.50;;;;;7.01;52.77;103205.56;5040936;28;45591;-71
2022/03/19 04:56:15;;;;;;;;;13.50;12.25;;;;;7.02;52.66;103214.28;5042313;28;46552;-71
2022/03/19 04:58:40;;;;;;;;;13.00;9.75;;;;;6.99;52.72;103212.47;5045855;28;45305;-71
2022/03/19 05:01:05;;;;;;;;;18.50;14.75;;;;;6.97;53.66;103201.16;5045952;28;45301;-71
2022/03/19 05:03:30;;;;;;;;;19.25;13.00;;;;;6.95;53.50;103207.22;5045939;28;45506;-71
2022/03/19 05:05:56;;;;;;;;;17.75;12.00;;;;;6.93;53.77;103201.97;5046496;28;46097;-71
2022/03/19 05:08:21;;;;;;;;;22.25;15.00;;;;;6.91;53.78;103200.22;5055272;28;45349;-72
2022/03/19 05:13:30;;;;;;;;;19.75;13.00;;;;;6.87;53.69;103194.06;5047820;28;45284;-71
2022/03/19 05:15:56;;;;;;;;;17.67;14.67;;;;;6.86;54.21;103202.75;5045235;28;55220;-71
2022/03/19 05:18:21;;;;;;;;;18.00;14.33;;;;;6.86;53.76;103207.13;5045043;28;45463;-71
2022/03/19 05:20:46;;;;;;;;;22.50;16.75;;;;;6.83;54.02;103201.84;5040815;28;45267;-71
2022/03/19 05:23:12;;;;;;;;;20.00;16.25;;;;;6.83;53.74;103207.06;5042421;28;45302;-71
2022/03/19 05:25:39;;;;;;;;;18.00;13.50;;;;;6.80;54.10;103203.56;5045264;28;46177;-71
2022/03/19 05:28:04;;;;;;;;;22.00;19.25;;;;;6.78;54.72;103209.63;5045642;28;45377;-71
2022/03/19 05:30:31;;;;;;;;;21.75;16.25;;;;;6.76;54.74;103207.00;5045452;28;45485;-71
2022/03/19 05:32:56;;;;;;;;;22.00;15.00;;;;;6.74;54.79;103206.13;5041190;28;45355;-71
2022/03/19 05:35:22;;;;;;;;;20.50;16.00;;;;;6.73;55.19;103208.69;5048259;28;45380;-71
2022/03/19 05:37:48;;;;;;;;;20.50;15.00;;;;;6.72;55.56;103212.16;5045017;28;45474;-72
2022/03/19 05:40:14;;;;;;;;;19.50;16.00;;;;;6.70;55.09;103204.31;5045462;28;45601;-72
2022/03/19 05:42:39;;;;;;;;;21.75;14.00;;;;;6.69;54.59;103207.78;5045139;28;45430;-71
2022/03/19 05:45:05;;;;;;;;;22.50;18.25;;;;;6.68;55.44;103206.03;5041842;28;45340;-71
2022/03/19 05:47:30;;;;;;;;;22.50;18.00;;;;;6.67;55.77;103209.47;5056475;28;45278;-71
2022/03/19 05:49:56;;;;;;;;;31.00;18.00;;;;;6.66;55.55;103209.47;5055799;28;45292;-71
2022/03/19 05:52:21;;;;;;;;;31.50;19.50;;;;;6.67;55.48;103213.84;5051819;28;45364;-71
2022/03/19 05:54:46;;;;;;;;;26.50;20.00;;;;;6.66;55.37;103214.69;5054535;28;46109;-71
2022/03/19 05:57:12;;;;;;;;;28.00;22.00;;;;;6.67;55.90;103224.28;5055985;28;45255;-71
2022/03/19 05:59:37;;;;;;;;;30.25;19.00;;;;;6.64;55.42;103219.03;5055452;28;45472;-71
2022/03/19 06:02:05;;;;;;;;;28.67;23.00;;;;;6.64;56.75;103212.06;5056371;28;46017;-71
2022/03/19 06:04:31;;;;;;;;;29.00;22.50;;;;;6.66;56.27;103212.97;5055567;28;47182;-71
2022/03/19 06:06:56;;;;;;;;;29.25;22.25;;;;;6.66;56.23;103214.69;5048524;28;45461;-71
2022/03/19 06:09:22;;;;;;;;;31.25;23.00;;;;;6.66;56.42;103207.72;5056474;28;45395;-71
2022/03/19 06:11:47;;;;;;;;;32.75;22.25;;;;;6.67;56.14;103217.31;5056054;28;45546;-71
2022/03/19 06:14:13;;;;;;;;;29.00;19.75;;;;;6.70;56.61;103214.75;5056630;28;46855;-71
2022/03/19 06:16:38;;;;;;;;;27.75;19.75;;;;;6.71;57.18;103213.91;5056129;28;45554;-71
2022/03/19 06:19:03;;;;;;;;;30.00;23.00;;;;;6.74;56.89;103215.69;5055820;28;45356;-71
2022/03/19 06:21:29;;;;;;;;;28.25;22.75;;;;;6.77;56.82;103213.97;5055330;28;45424;-71
2022/03/19 06:23:55;;;;;;;;;27.50;23.50;;;;;6.81;57.12;103217.50;5055493;28;47131;-71
2022/03/19 06:26:23;;;;;;;;;31.75;24.50;;;;;6.86;57.05;103217.56;5056606;28;45360;-71
2022/03/19 06:28:48;;;;;;;;;38.25;26.25;;;;;6.89;57.07;103213.28;5064144;28;45471;-71
2022/03/19 06:31:14;;;;;;;;;26.50;21.50;;;;;6.94;56.54;103210.69;5050816;28;45437;-71
2022/03/19 06:33:41;;;;;;;;;32.50;26.50;;;;;6.97;57.04;103214.22;5055395;28;46194;-71
2022/03/19 06:38:51;;;;;;;;;37.50;29.50;;;;;7.09;57.25;103218.69;5054412;28;45393;-71
2022/03/19 06:41:16;;;;;;;;;31.75;24.50;;;;;7.16;57.28;103217.94;5051075;28;45379;-71
2022/03/19 06:43:43;;;;;;;;;33.33;25.33;;;;;7.23;57.38;103211.88;5043990;28;48053;-71
2022/03/19 06:46:09;;;;;;;;;31.25;24.25;;;;;7.30;57.34;103220.66;5044063;28;45469;-71
2022/03/19 06:48:34;;;;;;;;;34.00;29.75;;;;;7.38;56.88;103215.53;5044072;28;45458;-71
2022/03/19 06:51:00;;;;;;;;;34.75;31.00;;;;;7.44;57.66;103220.81;5040285;28;45503;-71
2022/03/19 06:53:25;;;;;;;;;39.75;31.25;;;;;7.51;57.74;103222.63;5039852;28;46123;-71
2022/03/19 06:55:52;;;;;;;;;41.25;30.00;;;;;7.62;57.53;103222.72;5043879;28;45237;-71
2022/03/19 06:58:19;;;;;;;;;36.00;30.00;;;;;7.70;56.96;103214.09;5044220;28;45264;-71
2022/03/19 07:00:44;;;;;;;;;46.25;34.50;;;;;7.80;57.53;103215.03;5043887;28;45459;-71
2022/03/19 07:03:09;;;;;;;;;43.50;27.75;;;;;7.89;57.21;103217.75;5049249;28;46114;-71
2022/03/19 07:05:35;;;;;;;;;33.33;27.33;;;;;7.99;57.15;103222.19;5037804;28;54208;-71
2022/03/19 07:08:01;;;;;;;;;40.00;29.50;;;;;8.10;57.04;103214.41;5042759;28;45361;-71
2022/03/19 07:10:27;;;;;;;;;43.00;31.25;;;;;8.19;56.86;103221.44;5051644;28;46867;-71
2022/03/19 07:12:56;;;;;;;;;39.50;30.25;;;;;8.31;56.84;103222.41;5062698;28;47285;-71
2022/03/19 07:15:24;;;;;;;;;26.75;21.25;;;;;8.45;56.75;103216.38;5040107;28;45271;-71
2022/03/19 07:17:51;;;;;;;;;40.25;35.75;;;;;8.59;56.39;103214.72;5054628;28;45452;-71
2022/03/19 07:20:17;;;;;;;;;45.25;34.50;;;;;8.83;56.88;103216.59;5055310;28;45399;-71
2022/03/19 07:22:57;;;;;;;;;47.00;38.00;;;;;9.15;56.12;103212.31;5054439;28;46440;-71
2022/03/19 07:25:25;;;;;;;;;46.50;36.75;;;;;9.45;55.89;103213.25;5054472;28;45885;-71
2022/03/19 07:27:52;;;;;;;;;49.75;35.50;;;;;9.85;55.93;103210.63;5055014;28;45474;-71
2022/03/19 07:30:19;;;;;;;;;54.75;37.00;;;;;10.38;55.46;103202.69;5054754;28;45401;-71
2022/03/19 07:32:44;;;;;;;;;43.25;33.00;;;;;10.93;55.10;103201.63;5054585;28;45531;-71
2022/03/19 07:35:13;;;;;;;;;49.00;40.75;;;;;11.97;54.34;103207.06;5054835;28;45491;-71
2022/03/19 07:37:40;;;;;;;;;51.00;40.00;;;;;13.05;52.98;103202.28;5054587;28;45354;-71
2022/03/19 07:40:07;;;;;;;;;43.00;35.75;;;;;13.82;51.32;103204.63;5054255;28;45599;-71
2022/03/19 07:42:32;;;;;;;;;48.75;36.75;;;;;14.72;49.75;103201.19;5054188;28;47142;-71
2022/03/19 07:44:57;;;;;;;;;51.50;40.25;;;;;14.93;49.02;103198.09;5054712;28;45406;-71
2022/03/19 07:47:23;;;;;;;;;55.00;37.00;;;;;14.82;48.70;103202.72;5039130;28;45451;-71
2022/03/19 07:49:48;;;;;;;;;52.00;37.75;;;;;14.50;47.92;103198.97;5042589;28;45656;-71
2022/03/19 07:52:14;;;;;;;;;57.25;42.75;;;;;14.28;48.54;103201.16;5042989;28;46623;-71
2022/03/19 07:54:39;;;;;;;;;57.50;41.75;;;;;14.21;48.26;103202.19;5043110;28;45376;-72
2022/03/19 07:57:06;;;;;;;;;60.00;41.75;;;;;14.30;48.22;103199.38;5036921;28;45345;-71
2022/03/19 07:59:33;;;;;;;;;55.25;41.00;;;;;14.60;48.10;103199.66;5047987;28;45559;-72
2022/03/19 08:01:59;;;;;;;;;55.25;40.00;;;;;14.82;47.71;103195.66;5044325;28;45463;-71
2022/03/19 08:04:24;;;;;;;;;59.00;43.50;;;;;15.20;47.51;103191.31;5043992;28;45320;-72
2022/03/19 08:06:55;;;;;;;;;54.75;40.50;;;;;15.65;47.41;103191.13;5042961;28;45756;-72
2022/03/19 08:09:21;;;;;;;;;56.00;43.00;;;;;15.94;46.60;103190.38;5038121;28;45277;-72
2022/03/19 08:11:47;;;;;;;;;58.50;43.75;;;;;16.38;46.10;103183.84;5053165;28;47222;-72
2022/03/19 08:14:14;;;;;;;;;56.00;43.50;;;;;17.50;45.88;103184.91;5044308;28;45359;-72
2022/03/19 08:16:40;;;;;;;;;58.25;43.75;;;;;18.39;44.54;103186.22;5040972;28;45928;-72
2022/03/19 08:19:07;;;;;;;;;56.00;41.25;;;;;19.78;44.21;103178.06;5041872;28;45553;-72
2022/03/19 08:21:32;;;;;;;;;56.25;45.00;;;;;20.83;42.14;103175.09;5042723;28;46218;-72
2022/03/19 08:23:57;;;;;;;;;54.25;37.75;;;;;21.58;40.63;103179.47;5038301;28;45484;-72
2022/03/19 08:26:23;;;;;;;;;55.50;43.00;;;;;21.99;39.52;103173.78;5039300;28;45502;-72
2022/03/19 08:28:48;;;;;;;;;57.00;45.00;;;;;22.77;39.57;103172.25;5041101;28;45505;-72
2022/03/19 08:31:13;;;;;;;;;63.00;46.00;;;;;23.81;37.30;103147.44;5042418;28;45428;-73
2022/03/19 08:33:39;;;;;;;;;61.00;44.75;;;;;24.77;36.99;103158.47;5048161;28;45505;-72
2022/03/19 08:36:04;;;;;;;;;58.75;45.50;;;;;25.96;34.88;103154.00;5047129;28;45391;-72
2022/03/19 08:41:13;;;;;;;;;65.75;48.25;;;;;28.24;33.33;103155.84;5054321;28;45364;-72
2022/03/19 08:43:39;;;;;;;;;58.00;43.75;;;;;28.63;31.66;103167.13;5061628;28;45390;-72
2022/03/19 08:46:05;;;;;;;;;58.25;45.50;;;;;28.71;30.03;103161.06;5046888;28;45475;-72
2022/03/19 08:48:31;;;;;;;;;59.50;44.75;;;;;28.51;29.97;103168.13;5053508;28;45266;-73
2022/03/19 08:51:39;;;;;;;;;58.50;45.00;;;;;28.65;29.18;103165.16;5049232;28;47637;-72
2022/03/19 08:53:41;;;;;;;;;55.00;41.75;;;;;29.40;29.09;103174.31;5053667;28;45449;-72
2022/03/19 08:56:07;;;;;;;;;54.25;43.00;;;;;30.24;28.30;103157.06;5054532;28;46257;-73
2022/03/19 08:58:32;;;;;;;;;60.25;44.25;;;;;30.90;27.28;103167.38;5053037;28;51083;-74
2022/03/19 09:00:57;;;;;;;;;58.75;44.75;;;;;31.14;26.53;103158.84;5048331;28;46034;-72
2022/03/19 09:03:23;;;;;;;;;54.00;42.50;;;;;31.88;26.17;103161.78;5048128;28;45569;-73
2022/03/19 09:05:48;;;;;;;;;52.25;40.75;;;;;32.52;24.59;103167.41;5052669;28;45478;-75
2022/03/19 09:08:14;;;;;;;;;54.50;43.50;;;;;32.60;25.17;103164.81;5043786;28;45356;-75
2022/03/19 09:10:39;;;;;;;;;57.25;44.50;;;;;32.92;24.83;103157.00;5050651;28;47401;-75
2022/03/19 09:13:06;;;;;;;;;56.50;45.00;;;;;33.07;24.25;103159.22;5046617;28;45403;-75
2022/03/19 09:15:31;;;;;;;;;57.00;44.00;;;;;33.08;23.50;103166.38;5042160;28;45419;-74
2022/03/19 09:17:57;;;;;;;;;55.75;44.25;;;;;33.07;23.46;103153.75;5037978;28;45424;-74
2022/03/19 09:20:23;;;;;;;;;57.00;43.25;;;;;33.71;23.28;103156.16;5038308;28;45941;-74
2022/03/19 09:22:48;;;;;;;;;54.75;42.50;;;;;34.01;22.96;103146.66;5041902;28;45899;-75
2022/03/19 09:25:14;;;;;;;;;51.25;41.50;;;;;34.44;22.39;103153.00;5042342;28;45275;-75
2022/03/19 09:27:40;;;;;;;;;54.75;42.75;;;;;34.93;22.05;103144.94;5044465;28;45486;-75
2022/03/19 09:30:07;;;;;;;;;59.00;43.00;;;;;35.49;22.00;103140.53;5054331;28;46375;-75
2022/03/19 09:32:32;;;;;;;;;55.50;43.00;;;;;36.10;21.84;103159.25;5048699;28;45790;-75
2022/03/19 09:34:58;;;;;;;;;50.75;41.75;;;;;36.35;21.45;103143.56;5052840;28;45434;-75
2022/03/19 09:37:24;;;;;;;;;52.00;42.00;;;;;36.77;21.87;103137.69;5054617;27;45575;-75
2022/03/19 09:39:49;;;;;;;;;57.75;43.00;;;;;36.86;20.80;103136.59;5051362;28;45579;-75
2022/03/19 09:42:15;;;;;;;;;46.25;38.75;;;;;36.68;19.65;103149.72;5051197;28;45613;-74
2022/03/19 09:44:43;;;;;;;;;56.25;41.50;;;;;36.26;20.37;103138.13;5053012;28;45619;-74
2022/03/19 09:47:08;;;;;;;;;55.00;43.50;;;;;36.26;20.07;103137.25;5051545;28;45438;-75
2022/03/19 09:49:34;;;;;;;;;54.75;44.00;;;;;36.16;20.29;103139.38;5050725;28;45997;-74
2022/03/19 09:52:02;;;;;;;;;48.25;39.50;;;;;36.33;19.82;103135.50;5050481;28;45536;-75
2022/03/19 09:54:28;;;;;;;;;52.75;41.75;;;;;35.78;20.12;103122.72;5050903;28;45664;-73
2022/03/19 09:56:53;;;;;;;;;54.50;42.00;;;;;35.18;19.82;103131.31;5037221;28;45598;-73
2022/03/19 09:59:22;;;;;;;;;72.75;61.25;;;;;34.14;19.76;103115.31;5043558;28;46386;-74
2022/03/19 10:01:48;;;;;;;;;54.75;42.25;;;;;32.72;20.83;103129.03;5049719;28;45497;-75
2022/03/19 10:04:17;;;;;;;;;56.50;43.50;;;;;31.95;21.59;103116.69;5051157;28;45734;-75
2022/03/19 10:09:46;;;;;;;;;51.00;41.75;;;;;31.13;22.27;103103.66;5046403;28;45611;-73
2022/03/19 10:12:20;;;;;;;;;48.25;38.75;;;;;30.89;22.79;103109.50;5050445;28;45450;-74
2022/03/19 10:14:53;;;;;;;;;52.50;42.00;;;;;30.20;22.87;103116.75;5045871;28;45522;-72
2022/03/19 10:17:44;;;;;;;;;50.25;40.50;;;;;29.71;22.55;103100.25;5049970;28;45739;-72
2022/03/19 10:20:12;;;;;;;;;56.25;42.75;;;;;29.21;23.30;103108.16;5043690;28;45793;-72
2022/03/19 10:22:40;;;;;;;;;58.50;42.50;;;;;28.83;23.45;103103.25;5048993;28;45462;-73
2022/03/19 10:25:07;;;;;;;;;54.00;43.00;;;;;28.79;23.41;103099.94;5055890;28;45478;-71
2022/03/19 10:27:38;;;;;;;;;52.50;39.00;;;;;28.91;24.10;103106.16;5055298;28;45466;-74
2022/03/19 10:30:13;;;;;;;;;51.50;40.50;;;;;28.93;23.52;103096.06;5056258;28;46214;-73
2022/03/19 10:32:40;;;;;;;;;51.75;39.50;;;;;28.77;23.41;103092.94;5055373;28;46006;-74
2022/03/19 10:35:10;;;;;;;;;52.00;41.50;;;;;28.63;23.35;103091.38;5053984;28;45395;-73
2022/03/19 10:37:38;;;;;;;;;65.50;49.25;;;;;28.50;24.32;103074.41;5055285;28;45562;-74
2022/03/19 10:40:06;;;;;;;;;53.00;39.75;;;;;28.28;23.65;103089.69;5054930;28;47288;-74
2022/03/19 10:42:40;;;;;;;;;52.50;40.00;;;;;27.74;24.12;103089.56;5053610;28;45392;-74
2022/03/19 10:45:10;;;;;;;;;50.50;41.00;;;;;27.04;24.28;103079.63;5055089;28;45456;-73
2022/03/19 10:47:47;;;;;;;;;53.25;40.75;;;;;26.25;24.52;103089.06;5055520;28;45413;-73
2022/03/19 10:50:20;;;;;;;;;45.00;36.50;;;;;25.71;25.27;103094.72;5042758;28;45984;-74
2022/03/19 10:52:47;;;;;;;;;54.25;41.50;;;;;25.31;25.47;103081.31;5053778;28;45502;-73
2022/03/19 10:55:13;;;;;;;;;53.00;41.00;;;;;24.88;25.44;103080.63;5050779;28;45538;-73
2022/03/19 10:57:39;;;;;;;;;46.00;37.00;;;;;24.61;26.06;103075.25;5051465;28;45347;-73
2022/03/19 11:00:05;;;;;;;;;52.50;40.50;;;;;24.21;26.03;103086.69;5039302;28;45998;-73
2022/03/19 11:02:32;;;;;;;;;50.00;39.75;;;;;23.81;26.52;103069.56;5055070;28;45951;-73
2022/03/19 11:04:59;;;;;;;;;50.00;37.50;;;;;23.59;26.74;103079.84;5052569;28;45538;-73
2022/03/19 11:07:27;;;;;;;;;54.50;41.50;;;;;23.59;27.23;103069.97;5054758;28;45499;-75
2022/03/19 11:09:57;;;;;;;;;50.00;41.25;;;;;23.47;27.71;103057.31;5054247;28;46220;-73
2022/03/19 11:12:26;;;;;;;;;52.00;40.50;;;;;23.26;27.01;103062.16;5052654;28;45304;-73
2022/03/19 11:14:53;;;;;;;;;53.25;42.25;;;;;23.08;27.67;103060.59;5039200;28;45330;-73
2022/03/19 11:17:27;;;;;;;;;56.25;43.50;;;;;23.09;27.80;103057.78;5056048;28;45343;-72
2022/03/19 11:19:55;;;;;;;;;52.50;42.25;;;;;23.03;27.84;103042.06;5055223;28;46222;-73
2022/03/19 11:22:21;;;;;;;;;58.50;43.00;;;;;23.02;28.17;103047.50;5054625;28;45722;-73
2022/03/19 11:25:08;;;;;;;;;57.50;41.50;;;;;22.92;27.99;103055.25;5054653;28;45939;-73
2022/03/19 11:27:41;;;;;;;;;53.50;41.50;;;;;22.60;28.32;103057.94;5041304;28;45443;-72
2022/03/19 11:30:14;;;;;;;;;50.75;40.50;;;;;22.50;28.21;103054.06;5048299;28;46389;-72